Pauma Valley, California
Current Conditions -  °F | °C
As of 6:35 PM on Tuesday 21 Oct 2014 (Local Time) from KL18 Reporting Station
Clear Clear  
Wind Chill: 64°   Ceiling: Unl
Heat Index: 64°   Visibility: 10mi
Dew Point: 61°   Wind: 5mph
Humidity: 88%   Direction: 150°SSE
Pressure: 29.86"   Gusts: NA
Location:  33.3°N, 116.98°W
Report Text: KL18 220135Z AUTO 15004KT 10SM CLR 18/16 A2986 RMK AO2
Loading
Personal Weather Stations






























Interactive Weather Map
Tropical Storm Tracking
New forecast layout! Learn more

10-Day Weather Forecast

Advertisements
Track Severe Weather on mobile